Time;durP1;ratioP1;P1;durP2;ratioP2;P2;SDS_P1;SDS_P2;PMS_P1;PMS_P2;Temp;Humidity;BMP_temperature;BMP_pressure;BME280_temperature;BME280_humidity;BME280_pressure;Samples;Min_cycle;Max_cycle;Signal;HPM_P1;HPM_P2
2022/01/16 00:00:50;;;;;;;0.03;0.03;;;;;;;;;;1723377;28;20239;-71
2022/01/16 00:04:07;;;;;;;0.10;0.10;;;;;;;;;;1722716;28;20296;-71
2022/01/16 00:04:59;;;;;;;0.10;0.10;;;;;;;;;;1724440;28;20200;-71
2022/01/16 00:05:50;;;;;;;0.00;0.00;;;;;;;;;;1723526;28;20239;-70
2022/01/16 00:06:43;;;;;;;0.13;0.13;;;;;;;;;;1730498;28;20198;-71
2022/01/16 00:07:36;;;;;;;0.03;0.03;;;;;;;;;;1725565;28;20204;-71
2022/01/16 00:08:28;;;;;;;0.03;0.03;;;;;;;;;;1725254;28;20212;-71
2022/01/16 00:09:19;;;;;;;0.10;0.10;;;;;;;;;;1725728;28;20204;-71
2022/01/16 00:10:12;;;;;;;0.10;0.10;;;;;;;;;;1724412;28;20200;-71
2022/01/16 00:11:07;;;;;;;0.13;0.13;;;;;;;;;;1724248;28;20232;-71
2022/01/16 00:12:00;;;;;;;0.10;0.10;;;;;;;;;;1725394;28;20200;-71
2022/01/16 00:12:52;;;;;;;0.00;0.00;;;;;;;;;;1725917;28;20387;-71
2022/01/16 00:13:45;;;;;;;0.20;0.20;;;;;;;;;;1725404;28;20208;-71
2022/01/16 00:14:36;;;;;;;0.00;0.00;;;;;;;;;;1725272;28;20690;-71
2022/01/16 00:15:28;;;;;;;0.10;0.10;;;;;;;;;;1723122;28;20335;-71
2022/01/16 00:16:19;;;;;;;0.10;0.10;;;;;;;;;;1725811;28;20270;-71
2022/01/16 00:17:12;;;;;;;0.00;0.00;;;;;;;;;;1725264;28;20200;-71
2022/01/16 00:18:10;;;;;;;0.00;0.00;;;;;;;;;;1726123;28;20298;-70
2022/01/16 00:19:02;;;;;;;0.00;0.00;;;;;;;;;;1725259;28;20285;-70
2022/01/16 00:19:53;;;;;;;0.00;0.00;;;;;;;;;;1725391;28;20219;-70
2022/01/16 00:20:45;;;;;;;0.10;0.10;;;;;;;;;;1722689;28;20236;-70
2022/01/16 00:21:40;;;;;;;0.10;0.10;;;;;;;;;;1725385;28;20200;-70
2022/01/16 00:22:37;;;;;;;0.00;0.00;;;;;;;;;;1725695;28;20661;-70
2022/01/16 00:23:30;;;;;;;0.00;0.00;;;;;;;;;;1725793;28;20215;-70
2022/01/16 00:24:22;;;;;;;0.00;0.00;;;;;;;;;;1726023;28;20656;-70
2022/01/16 00:25:14;;;;;;;0.00;0.00;;;;;;;;;;1724338;28;20546;-70
2022/01/16 00:26:06;;;;;;;0.05;0.05;;;;;;;;;;1724623;28;20648;-70
2022/01/16 00:26:57;;;;;;;0.10;0.10;;;;;;;;;;1724780;28;20231;-70
2022/01/16 00:27:50;;;;;;;0.00;0.00;;;;;;;;;;1725771;28;20198;-70
2022/01/16 00:28:41;;;;;;;0.10;0.10;;;;;;;;;;1725703;28;20646;-71
2022/01/16 00:29:33;;;;;;;0.10;0.10;;;;;;;;;;1724571;28;20208;-71
2022/01/16 00:30:25;;;;;;;0.10;0.10;;;;;;;;;;1723078;28;20208;-71
2022/01/16 00:31:17;;;;;;;0.00;0.00;;;;;;;;;;1726070;28;20208;-71
2022/01/16 00:32:09;;;;;;;0.00;0.00;;;;;;;;;;1724323;28;20210;-71
2022/01/16 00:33:01;;;;;;;0.10;0.10;;;;;;;;;;1725165;28;20860;-71
2022/01/16 00:33:52;;;;;;;0.17;0.17;;;;;;;;;;1725265;28;20307;-71
2022/01/16 00:34:44;;;;;;;0.00;0.00;;;;;;;;;;1725303;28;20224;-71
2022/01/16 00:35:36;;;;;;;0.20;0.20;;;;;;;;;;1722881;28;20236;-71
2022/01/16 00:36:28;;;;;;;0.00;0.00;;;;;;;;;;1725912;28;20204;-71
2022/01/16 00:37:19;;;;;;;0.00;0.00;;;;;;;;;;1725323;28;20703;-71
2022/01/16 00:38:11;;;;;;;0.00;0.00;;;;;;;;;;1723639;28;20227;-71
2022/01/16 00:39:05;;;;;;;0.10;0.10;;;;;;;;;;1724456;28;20204;-71
2022/01/16 00:39:57;;;;;;;0.00;0.00;;;;;;;;;;1725516;28;20369;-71
2022/01/16 00:40:48;;;;;;;0.03;0.03;;;;;;;;;;1723063;28;20230;-71
2022/01/16 00:41:40;;;;;;;0.20;0.20;;;;;;;;;;1725771;28;20211;-71
2022/01/16 00:42:31;;;;;;;0.00;0.00;;;;;;;;;;1725036;28;20291;-71
2022/01/16 00:43:23;;;;;;;0.20;0.20;;;;;;;;;;1725720;28;20203;-71
2022/01/16 00:44:15;;;;;;;0.10;0.10;;;;;;;;;;1725923;28;20204;-71
2022/01/16 00:45:07;;;;;;;0.00;0.00;;;;;;;;;;1724762;28;20204;-71
2022/01/16 00:45:58;;;;;;;0.10;0.10;;;;;;;;;;1723310;28;20231;-71
2022/01/16 00:46:50;;;;;;;0.10;0.10;;;;;;;;;;1725656;28;20243;-71
2022/01/16 00:47:42;;;;;;;0.20;0.20;;;;;;;;;;1725523;28;20208;-71
2022/01/16 00:48:34;;;;;;;0.00;0.00;;;;;;;;;;1725141;28;20218;-71
2022/01/16 00:49:25;;;;;;;0.10;0.10;;;;;;;;;;1725474;28;20219;-71
2022/01/16 00:50:17;;;;;;;0.10;0.10;;;;;;;;;;1723950;28;20206;-71
2022/01/16 00:51:09;;;;;;;0.10;0.10;;;;;;;;;;1724392;28;20625;-71
2022/01/16 00:52:01;;;;;;;0.00;0.00;;;;;;;;;;1724507;28;21342;-71
2022/01/16 00:52:53;;;;;;;0.00;0.00;;;;;;;;;;1725830;28;20622;-71
2022/01/16 00:53:45;;;;;;;0.10;0.10;;;;;;;;;;1724960;28;20554;-71
2022/01/16 00:54:38;;;;;;;0.10;0.10;;;;;;;;;;1725561;28;20235;-71
2022/01/16 00:55:32;;;;;;;0.00;0.00;;;;;;;;;;1723285;28;20250;-71
2022/01/16 00:56:23;;;;;;;0.10;0.10;;;;;;;;;;1725825;28;20296;-71
2022/01/16 00:57:15;;;;;;;0.10;0.10;;;;;;;;;;1724947;28;20201;-71
2022/01/16 00:58:07;;;;;;;0.10;0.10;;;;;;;;;;1725364;28;20934;-71
2022/01/16 00:58:59;;;;;;;0.10;0.10;;;;;;;;;;1724653;28;20250;-71
2022/01/16 00:59:50;;;;;;;0.10;0.10;;;;;;;;;;1723301;28;20219;-70
2022/01/16 01:00:42;;;;;;;0.00;0.00;;;;;;;;;;1722917;28;20518;-70
2022/01/16 01:01:33;;;;;;;0.00;0.00;;;;;;;;;;1723525;28;20622;-70
2022/01/16 01:02:26;;;;;;;0.10;0.10;;;;;;;;;;1724264;28;20210;-70
2022/01/16 01:03:17;;;;;;;0.10;0.10;;;;;;;;;;1727296;28;20210;-70
2022/01/16 01:04:09;;;;;;;0.05;0.05;;;;;;;;;;1725195;28;20624;-70
2022/01/16 01:05:00;;;;;;;0.00;0.00;;;;;;;;;;1726464;28;20662;-70
2022/01/16 01:05:53;;;;;;;0.00;0.00;;;;;;;;;;1722512;28;20264;-70
2022/01/16 01:06:47;;;;;;;0.10;0.10;;;;;;;;;;1725545;28;20205;-70
2022/01/16 01:07:39;;;;;;;0.00;0.00;;;;;;;;;;1724897;28;20266;-70
2022/01/16 01:08:31;;;;;;;0.10;0.10;;;;;;;;;;1725645;28;20212;-70
2022/01/16 01:09:24;;;;;;;0.10;0.10;;;;;;;;;;1724988;28;20296;-70
2022/01/16 01:10:18;;;;;;;0.10;0.10;;;;;;;;;;1722675;28;20437;-70
2022/01/16 01:11:14;;;;;;;0.10;0.10;;;;;;;;;;1718458;28;20232;-71
2022/01/16 01:12:06;;;;;;;0.20;0.20;;;;;;;;;;1718111;28;20229;-71
2022/01/16 01:13:09;;;;;;;0.20;0.20;;;;;;;;;;1718918;28;20532;-71
2022/01/16 01:14:16;;;;;;;0.10;0.10;;;;;;;;;;1718411;28;20201;-71
2022/01/16 01:15:10;;;;;;;0.10;0.10;;;;;;;;;;1717065;28;20655;-71
2022/01/16 01:16:02;;;;;;;0.00;0.00;;;;;;;;;;1723345;28;20240;-71
2022/01/16 01:16:59;;;;;;;0.10;0.10;;;;;;;;;;1725242;28;20213;-71
2022/01/16 01:17:51;;;;;;;0.03;0.03;;;;;;;;;;1725144;28;20258;-71
2022/01/16 01:18:44;;;;;;;0.00;0.00;;;;;;;;;;1725301;28;20530;-71
2022/01/16 01:19:35;;;;;;;0.00;0.00;;;;;;;;;;1725206;28;20701;-71
2022/01/16 01:20:27;;;;;;;0.13;0.13;;;;;;;;;;1722274;28;20654;-71
2022/01/16 01:21:28;;;;;;;0.10;0.10;;;;;;;;;;1725462;28;20309;-71
2022/01/16 01:22:20;;;;;;;0.03;0.03;;;;;;;;;;1724378;28;20267;-71
2022/01/16 01:23:12;;;;;;;0.00;0.00;;;;;;;;;;1725504;28;20541;-71
2022/01/16 01:24:04;;;;;;;0.00;0.00;;;;;;;;;;1724809;28;20325;-71
2022/01/16 01:24:55;;;;;;;0.10;0.10;;;;;;;;;;1725822;28;20196;-71
2022/01/16 01:25:49;;;;;;;0.10;0.10;;;;;;;;;;1722731;28;20319;-71
2022/01/16 01:26:49;;;;;;;0.10;0.10;;;;;;;;;;1725261;28;20574;-71
2022/01/16 01:27:41;;;;;;;0.00;0.00;;;;;;;;;;1726264;28;20223;-71
2022/01/16 01:28:33;;;;;;;0.20;0.20;;;;;;;;;;1724464;28;20253;-71
2022/01/16 01:29:28;;;;;;;0.00;0.00;;;;;;;;;;1724865;28;20753;-71
2022/01/16 01:30:23;;;;;;;0.08;0.08;;;;;;;;;;1723728;28;20219;-71
2022/01/16 01:31:15;;;;;;;0.00;0.00;;;;;;;;;;1724525;28;20269;-71
2022/01/16 01:32:07;;;;;;;0.10;0.10;;;;;;;;;;1724387;28;20307;-71
2022/01/16 01:32:59;;;;;;;0.10;0.10;;;;;;;;;;1725635;28;20404;-71
2022/01/16 01:33:50;;;;;;;0.00;0.00;;;;;;;;;;1725098;28;20200;-71
2022/01/16 01:34:43;;;;;;;0.20;0.20;;;;;;;;;;1723738;28;20988;-71
2022/01/16 01:35:38;;;;;;;0.10;0.10;;;;;;;;;;1720514;28;20702;-71
2022/01/16 01:36:31;;;;;;;0.10;0.10;;;;;;;;;;1718804;28;20277;-71
2022/01/16 01:37:22;;;;;;;0.05;0.05;;;;;;;;;;1717706;28;20314;-71
2022/01/16 01:38:17;;;;;;;0.10;0.10;;;;;;;;;;1718819;28;20275;-71
2022/01/16 01:39:08;;;;;;;0.20;0.20;;;;;;;;;;1718361;28;20675;-71
2022/01/16 01:40:00;;;;;;;0.00;0.00;;;;;;;;;;1718789;28;20197;-71
2022/01/16 01:40:54;;;;;;;0.10;0.10;;;;;;;;;;1714925;28;20244;-71
2022/01/16 01:41:47;;;;;;;0.10;0.10;;;;;;;;;;1718233;28;20217;-71
2022/01/16 01:42:45;;;;;;;0.00;0.00;;;;;;;;;;1717189;28;20197;-71
2022/01/16 01:51:46;;;;;;;0.10;0.10;;;;;;;;;;1717372;28;20340;-71
2022/01/16 01:52:37;;;;;;;0.20;0.20;;;;;;;;;;1717544;28;20208;-71
2022/01/16 01:53:30;;;;;;;0.20;0.20;;;;;;;;;;1717222;28;20611;-71
2022/01/16 01:54:21;;;;;;;0.13;0.13;;;;;;;;;;1718576;28;20236;-71
2022/01/16 01:55:13;;;;;;;0.20;0.20;;;;;;;;;;1710808;28;20233;-71
2022/01/16 01:56:07;;;;;;;0.10;0.10;;;;;;;;;;1717815;28;20243;-71
2022/01/16 01:56:59;;;;;;;0.20;0.20;;;;;;;;;;1718105;28;20647;-71
2022/01/16 01:57:50;;;;;;;0.20;0.20;;;;;;;;;;1718466;28;20205;-71
2022/01/16 01:58:43;;;;;;;0.10;0.10;;;;;;;;;;1718026;28;20244;-71
2022/01/16 01:59:34;;;;;;;0.25;0.25;;;;;;;;;;1717243;28;20558;-72
2022/01/16 02:00:26;;;;;;;0.10;0.10;;;;;;;;;;1715726;28;20209;-71
2022/01/16 02:01:17;;;;;;;0.20;0.20;;;;;;;;;;1718719;28;20224;-71
2022/01/16 02:02:10;;;;;;;0.38;0.38;;;;;;;;;;1717606;28;20550;-71
2022/01/16 02:03:15;;;;;;;0.50;0.50;;;;;;;;;;1718365;28;20216;-71
2022/01/16 02:04:08;;;;;;;0.20;0.20;;;;;;;;;;1717357;28;20275;-69
2022/01/16 02:04:59;;;;;;;0.17;0.17;;;;;;;;;;1718792;28;20216;-70
2022/01/16 02:05:51;;;;;;;0.30;0.30;;;;;;;;;;1715258;28;20615;-70
2022/01/16 02:06:42;;;;;;;0.10;0.10;;;;;;;;;;1718588;28;20209;-70
2022/01/16 02:07:34;;;;;;;0.30;0.30;;;;;;;;;;1718111;28;20209;-70
2022/01/16 02:08:26;;;;;;;0.20;0.20;;;;;;;;;;1718484;28;20205;-70
2022/01/16 02:09:18;;;;;;;0.15;0.15;;;;;;;;;;1718330;28;20243;-70
2022/01/16 02:10:12;;;;;;;0.30;0.30;;;;;;;;;;1711665;28;20212;-70
2022/01/16 02:11:05;;;;;;;0.32;0.32;;;;;;;;;;1716962;28;20299;-70
2022/01/16 02:11:58;;;;;;;0.30;0.30;;;;;;;;;;1717244;28;20615;-70
2022/01/16 02:12:56;;;;;;;0.10;0.10;;;;;;;;;;1718384;28;20627;-70
2022/01/16 02:13:54;;;;;;;0.40;0.40;;;;;;;;;;1718147;28;20197;-70
2022/01/16 02:14:56;;;;;;;0.30;0.30;;;;;;;;;;1718356;28;20201;-71
2022/01/16 02:28:03;;;;;;;0.10;0.10;;;;;;;;;;1717973;28;20688;-70
2022/01/16 02:29:12;;;;;;;0.40;0.40;;;;;;;;;;1718107;28;20197;-70
2022/01/16 02:31:19;;;;;;;0.10;0.10;;;;;;;;;;1715102;28;20229;-70
2022/01/16 02:32:39;;;;;;;0.55;0.55;;;;;;;;;;1717907;28;20258;-70
2022/01/16 02:34:43;;;;;;;0.10;0.10;;;;;;;;;;1717462;28;20216;-70
2022/01/16 02:35:35;;;;;;;0.22;0.22;;;;;;;;;;1715430;28;20240;-70
2022/01/16 02:36:30;;;;;;;0.10;0.10;;;;;;;;;;1718099;28;20205;-70
2022/01/16 02:37:23;;;;;;;0.20;0.20;;;;;;;;;;1716957;28;20208;-70
2022/01/16 02:38:17;;;;;;;0.20;0.20;;;;;;;;;;1718683;28;20631;-70
2022/01/16 02:39:13;;;;;;;0.30;0.30;;;;;;;;;;1717878;28;20547;-70
2022/01/16 02:40:16;;;;;;;0.15;0.15;;;;;;;;;;1718217;28;20208;-70
2022/01/16 02:41:07;;;;;;;0.20;0.20;;;;;;;;;;1716016;28;20241;-70
2022/01/16 02:41:59;;;;;;;0.10;0.10;;;;;;;;;;1717726;28;20200;-70
2022/01/16 02:42:52;;;;;;;0.40;0.40;;;;;;;;;;1717768;28;20208;-70
2022/01/16 02:43:49;;;;;;;0.20;0.20;;;;;;;;;;1717471;28;20243;-70
2022/01/16 02:44:45;;;;;;;0.30;0.30;;;;;;;;;;1718595;28;20891;-70
2022/01/16 02:45:44;;;;;;;0.30;0.30;;;;;;;;;;1715789;28;20636;-70
2022/01/16 02:46:36;;;;;;;0.20;0.20;;;;;;;;;;1716845;28;20255;-70
2022/01/16 02:47:28;;;;;;;0.20;0.20;;;;;;;;;;1717256;28;20705;-70
2022/01/16 02:48:19;;;;;;;0.10;0.10;;;;;;;;;;1718823;28;20213;-70
2022/01/16 02:49:19;;;;;;;0.25;0.25;;;;;;;;;;1717461;28;20332;-70
2022/01/16 02:50:13;;;;;;;0.20;0.20;;;;;;;;;;1717254;28;20551;-70
2022/01/16 02:51:05;;;;;;;0.10;0.10;;;;;;;;;;1723420;28;20246;-70
2022/01/16 02:51:58;;;;;;;0.20;0.20;;;;;;;;;;1724378;28;20215;-70
2022/01/16 02:52:50;;;;;;;0.10;0.10;;;;;;;;;;1725952;28;20204;-70
2022/01/16 02:53:44;;;;;;;0.30;0.30;;;;;;;;;;1726001;28;20211;-70
2022/01/16 02:54:37;;;;;;;0.25;0.25;;;;;;;;;;1726687;28;20215;-70
2022/01/16 02:55:29;;;;;;;0.00;0.00;;;;;;;;;;1721993;28;20238;-70
2022/01/16 02:56:21;;;;;;;0.20;0.20;;;;;;;;;;1719465;28;20201;-70
2022/01/16 02:57:14;;;;;;;0.10;0.10;;;;;;;;;;1719201;28;20200;-70
2022/01/16 02:58:05;;;;;;;0.10;0.10;;;;;;;;;;1719924;28;20678;-70
2022/01/16 02:58:57;;;;;;;0.00;0.00;;;;;;;;;;1718915;28;20207;-70
2022/01/16 02:59:49;;;;;;;0.25;0.25;;;;;;;;;;1719387;28;20222;-70
2022/01/16 03:00:41;;;;;;;0.10;0.10;;;;;;;;;;1720596;28;20236;-70
2022/01/16 03:01:33;;;;;;;0.20;0.20;;;;;;;;;;1721663;28;20634;-70
2022/01/16 03:02:25;;;;;;;0.20;0.20;;;;;;;;;;1724385;28;20626;-70
2022/01/16 03:03:17;;;;;;;0.10;0.10;;;;;;;;;;1726681;28;20263;-70
2022/01/16 03:04:09;;;;;;;0.17;0.17;;;;;;;;;;1725542;28;20251;-70
2022/01/16 03:05:01;;;;;;;0.20;0.20;;;;;;;;;;1726657;28;20200;-70
2022/01/16 03:05:53;;;;;;;0.00;0.00;;;;;;;;;;1719165;28;20230;-70
2022/01/16 03:06:44;;;;;;;0.08;0.08;;;;;;;;;;1719690;28;20676;-70
2022/01/16 03:07:37;;;;;;;0.20;0.20;;;;;;;;;;1719248;28;20283;-70
2022/01/16 03:08:28;;;;;;;0.20;0.20;;;;;;;;;;1718565;28;20219;-70
2022/01/16 03:09:23;;;;;;;0.10;0.10;;;;;;;;;;1718359;28;20306;-70
2022/01/16 03:10:41;;;;;;;0.10;0.10;;;;;;;;;;1712992;28;20324;-70
2022/01/16 03:11:36;;;;;;;0.08;0.08;;;;;;;;;;1716908;28;20259;-70
2022/01/16 03:12:28;;;;;;;0.00;0.00;;;;;;;;;;1719081;28;20593;-70
2022/01/16 03:13:21;;;;;;;0.10;0.10;;;;;;;;;;1719966;28;20217;-70
2022/01/16 03:14:13;;;;;;;0.10;0.10;;;;;;;;;;1718522;28;20224;-70
2022/01/16 03:15:06;;;;;;;0.20;0.20;;;;;;;;;;1718991;28;20248;-70
2022/01/16 03:15:58;;;;;;;0.10;0.10;;;;;;;;;;1723824;28;20238;-70
2022/01/16 03:16:52;;;;;;;0.20;0.20;;;;;;;;;;1726317;28;20201;-70
2022/01/16 03:21:53;;;;;;;0.20;0.20;;;;;;;;;;1726212;28;20209;-70
2022/01/16 03:22:34;;;;;;;0.10;0.10;;;;;;;;;;1725856;28;20223;-70
2022/01/16 03:23:25;;;;;;;0.20;0.20;;;;;;;;;;1726721;28;20211;-70
2022/01/16 03:24:17;;;;;;;0.20;0.20;;;;;;;;;;1725925;28;20242;-70
2022/01/16 03:25:13;;;;;;;0.10;0.10;;;;;;;;;;1725105;28;20681;-70
2022/01/16 03:26:05;;;;;;;0.20;0.20;;;;;;;;;;1724155;28;20240;-70
2022/01/16 03:26:57;;;;;;;0.17;0.17;;;;;;;;;;1724773;28;20750;-70
2022/01/16 03:27:49;;;;;;;0.03;0.03;;;;;;;;;;1726347;28;20522;-70
2022/01/16 03:28:40;;;;;;;0.10;0.10;;;;;;;;;;1725916;28;20200;-70
2022/01/16 03:29:32;;;;;;;0.17;0.17;;;;;;;;;;1725915;28;20259;-70
2022/01/16 03:30:24;;;;;;;0.00;0.00;;;;;;;;;;1722815;28;20212;-70
2022/01/16 03:31:16;;;;;;;0.00;0.00;;;;;;;;;;1719450;28;20240;-70
2022/01/16 03:32:09;;;;;;;0.10;0.10;;;;;;;;;;1718927;28;20219;-69
2022/01/16 03:33:01;;;;;;;0.00;0.00;;;;;;;;;;1719281;28;20287;-69
2022/01/16 03:33:52;;;;;;;0.10;0.10;;;;;;;;;;1719070;28;20216;-70
2022/01/16 03:34:44;;;;;;;0.10;0.10;;;;;;;;;;1718702;28;20667;-70
2022/01/16 03:35:36;;;;;;;0.10;0.10;;;;;;;;;;1716765;28;20237;-70
2022/01/16 03:36:28;;;;;;;0.10;0.10;;;;;;;;;;1719394;28;20193;-70
2022/01/16 03:37:19;;;;;;;0.20;0.20;;;;;;;;;;1718825;28;20213;-70
2022/01/16 03:38:11;;;;;;;0.00;0.00;;;;;;;;;;1719744;28;20320;-70
2022/01/16 03:39:03;;;;;;;0.00;0.00;;;;;;;;;;1718337;28;20690;-70
2022/01/16 03:39:55;;;;;;;0.00;0.00;;;;;;;;;;1719074;28;20616;-70
2022/01/16 03:40:48;;;;;;;0.10;0.10;;;;;;;;;;1716540;28;20241;-70
2022/01/16 03:41:40;;;;;;;0.08;0.08;;;;;;;;;;1718964;28;20324;-70
2022/01/16 03:42:33;;;;;;;0.00;0.00;;;;;;;;;;1719076;28;20371;-70
2022/01/16 03:43:26;;;;;;;0.03;0.03;;;;;;;;;;1720240;28;20236;-70
2022/01/16 03:44:17;;;;;;;0.10;0.10;;;;;;;;;;1719220;28;20588;-70
2022/01/16 03:45:11;;;;;;;0.20;0.20;;;;;;;;;;1717904;28;20555;-70
2022/01/16 03:46:03;;;;;;;0.10;0.10;;;;;;;;;;1717612;28;20244;-70
2022/01/16 03:46:55;;;;;;;0.10;0.10;;;;;;;;;;1719221;28;20497;-70
2022/01/16 03:47:47;;;;;;;0.20;0.20;;;;;;;;;;1718772;28;20207;-70
2022/01/16 03:48:39;;;;;;;0.05;0.05;;;;;;;;;;1719193;28;20294;-69
2022/01/16 03:49:31;;;;;;;0.10;0.10;;;;;;;;;;1718760;28;20210;-70
2022/01/16 03:50:23;;;;;;;0.03;0.03;;;;;;;;;;1717002;28;20238;-70
2022/01/16 03:51:15;;;;;;;0.20;0.20;;;;;;;;;;1719243;28;20209;-70
2022/01/16 03:52:07;;;;;;;0.20;0.20;;;;;;;;;;1717425;28;20280;-70
2022/01/16 03:52:58;;;;;;;0.00;0.00;;;;;;;;;;1719467;28;20292;-70
2022/01/16 03:53:50;;;;;;;0.10;0.10;;;;;;;;;;1718911;28;20207;-70
2022/01/16 03:54:41;;;;;;;0.10;0.10;;;;;;;;;;1719498;28;20210;-70
2022/01/16 03:55:34;;;;;;;0.00;0.00;;;;;;;;;;1716826;28;20329;-70
2022/01/16 03:56:28;;;;;;;0.10;0.10;;;;;;;;;;1719551;28;20271;-70
2022/01/16 03:57:19;;;;;;;0.00;0.00;;;;;;;;;;1718526;28;20779;-70
2022/01/16 03:58:11;;;;;;;0.10;0.10;;;;;;;;;;1718514;28;20219;-70
2022/01/16 03:59:02;;;;;;;0.00;0.00;;;;;;;;;;1718836;28;20210;-70
2022/01/16 03:59:54;;;;;;;0.00;0.00;;;;;;;;;;1717380;28;20289;-70
2022/01/16 04:00:46;;;;;;;0.10;0.10;;;;;;;;;;1716463;28;20248;-70
2022/01/16 04:01:38;;;;;;;0.20;0.20;;;;;;;;;;1716841;28;20297;-70
2022/01/16 04:02:29;;;;;;;0.10;0.10;;;;;;;;;;1718407;28;20403;-70
2022/01/16 04:03:21;;;;;;;0.00;0.00;;;;;;;;;;1719351;28;20279;-70
2022/01/16 04:04:13;;;;;;;0.00;0.00;;;;;;;;;;1717797;28;20265;-70
2022/01/16 04:05:05;;;;;;;0.00;0.00;;;;;;;;;;1719039;28;20215;-70
2022/01/16 04:05:57;;;;;;;0.15;0.15;;;;;;;;;;1717262;28;20694;-70
2022/01/16 04:06:49;;;;;;;0.10;0.10;;;;;;;;;;1719186;28;20229;-70
2022/01/16 04:07:40;;;;;;;0.10;0.10;;;;;;;;;;1719141;28;20229;-70
2022/01/16 04:08:32;;;;;;;0.00;0.00;;;;;;;;;;1718842;28;20292;-70
2022/01/16 04:09:23;;;;;;;0.10;0.10;;;;;;;;;;1719180;28;20253;-70
2022/01/16 04:10:16;;;;;;;0.30;0.30;;;;;;;;;;1717329;28;20226;-70
2022/01/16 04:11:08;;;;;;;0.00;0.00;;;;;;;;;;1718142;28;20241;-70
2022/01/16 04:12:03;;;;;;;0.15;0.15;;;;;;;;;;1718804;28;20223;-70
2022/01/16 04:12:54;;;;;;;0.10;0.10;;;;;;;;;;1719580;28;20218;-70
2022/01/16 04:13:51;;;;;;;0.20;0.20;;;;;;;;;;1718987;28;20634;-70
2022/01/16 04:15:52;;;;;;;0.00;0.00;;;;;;;;;;1716786;28;20254;-70
2022/01/16 04:16:44;;;;;;;0.00;0.00;;;;;;;;;;1718804;28;20241;-70
2022/01/16 04:17:35;;;;;;;0.03;0.03;;;;;;;;;;1719288;28;20576;-70
2022/01/16 04:18:27;;;;;;;0.00;0.00;;;;;;;;;;1719576;28;20529;-70
2022/01/16 04:19:20;;;;;;;0.10;0.10;;;;;;;;;;1718801;28;20212;-70
2022/01/16 04:20:16;;;;;;;0.10;0.10;;;;;;;;;;1718096;28;20219;-70
2022/01/16 04:21:07;;;;;;;0.20;0.20;;;;;;;;;;1718478;28;20689;-70
2022/01/16 04:21:59;;;;;;;0.10;0.10;;;;;;;;;;1718995;28;20197;-70
2022/01/16 04:22:50;;;;;;;0.15;0.15;;;;;;;;;;1718593;28;20266;-70
2022/01/16 04:23:42;;;;;;;0.13;0.13;;;;;;;;;;1719373;28;20577;-70
2022/01/16 04:24:34;;;;;;;0.00;0.00;;;;;;;;;;1718300;28;20205;-70
2022/01/16 04:25:26;;;;;;;0.17;0.17;;;;;;;;;;1716754;28;20213;-71
2022/01/16 04:26:18;;;;;;;0.00;0.00;;;;;;;;;;1719678;28;20204;-70
2022/01/16 04:27:11;;;;;;;0.10;0.10;;;;;;;;;;1718722;28;20220;-70
2022/01/16 04:28:03;;;;;;;0.00;0.00;;;;;;;;;;1719722;28;20209;-70
2022/01/16 04:28:55;;;;;;;0.10;0.10;;;;;;;;;;1717779;28;20251;-70
2022/01/16 04:29:47;;;;;;;0.10;0.10;;;;;;;;;;1719254;28;20655;-70
2022/01/16 04:30:39;;;;;;;0.03;0.03;;;;;;;;;;1716785;28;20762;-70
2022/01/16 04:31:30;;;;;;;0.10;0.10;;;;;;;;;;1719165;28;20232;-70
2022/01/16 04:32:22;;;;;;;0.10;0.10;;;;;;;;;;1718936;28;20204;-70
2022/01/16 04:33:13;;;;;;;0.00;0.00;;;;;;;;;;1719819;28;20213;-70
2022/01/16 04:34:06;;;;;;;0.10;0.10;;;;;;;;;;1718988;28;20244;-70
2022/01/16 04:34:57;;;;;;;0.05;0.05;;;;;;;;;;1723824;28;20544;-70
2022/01/16 04:35:49;;;;;;;0.10;0.10;;;;;;;;;;1716834;28;20324;-70
2022/01/16 04:36:41;;;;;;;0.20;0.20;;;;;;;;;;1719611;28;20206;-70
2022/01/16 04:37:34;;;;;;;0.10;0.10;;;;;;;;;;1718927;28;20272;-70
2022/01/16 04:38:26;;;;;;;0.00;0.00;;;;;;;;;;1719657;28;20715;-70
2022/01/16 04:39:20;;;;;;;0.10;0.10;;;;;;;;;;1719417;28;20452;-70
2022/01/16 04:40:13;;;;;;;0.10;0.10;;;;;;;;;;1712744;28;20206;-70
2022/01/16 04:44:36;;;;;;;0.10;0.10;;;;;;;;;;1718629;28;20530;-70
2022/01/16 04:45:28;;;;;;;0.10;0.10;;;;;;;;;;1716921;28;20252;-70
2022/01/16 04:46:22;;;;;;;0.00;0.00;;;;;;;;;;1719158;28;20665;-70
2022/01/16 04:47:13;;;;;;;0.20;0.20;;;;;;;;;;1718446;28;20536;-70
2022/01/16 04:48:06;;;;;;;0.13;0.13;;;;;;;;;;1719018;28;20674;-70
2022/01/16 04:48:58;;;;;;;0.05;0.05;;;;;;;;;;1718848;28;20201;-70
2022/01/16 04:49:50;;;;;;;0.13;0.13;;;;;;;;;;1719058;28;20205;-70
2022/01/16 04:50:41;;;;;;;0.10;0.10;;;;;;;;;;1717027;28;20250;-70
2022/01/16 04:51:34;;;;;;;0.08;0.08;;;;;;;;;;1716506;28;20436;-70
2022/01/16 04:52:25;;;;;;;0.10;0.10;;;;;;;;;;1718499;28;20245;-70
2022/01/16 04:53:17;;;;;;;0.00;0.00;;;;;;;;;;1719413;28;20643;-70
2022/01/16 04:54:08;;;;;;;0.10;0.10;;;;;;;;;;1718271;28;20278;-70
2022/01/16 04:55:00;;;;;;;0.30;0.30;;;;;;;;;;1719620;28;20225;-70
2022/01/16 04:55:52;;;;;;;0.10;0.10;;;;;;;;;;1716928;28;20240;-70
2022/01/16 04:56:44;;;;;;;0.10;0.10;;;;;;;;;;1719221;28;20248;-70
2022/01/16 04:57:37;;;;;;;0.08;0.08;;;;;;;;;;1718932;28;20220;-70
2022/01/16 04:58:29;;;;;;;0.00;0.00;;;;;;;;;;1719311;28;20311;-70
2022/01/16 04:59:21;;;;;;;0.10;0.10;;;;;;;;;;1718540;28;20212;-70
2022/01/16 05:00:14;;;;;;;0.10;0.10;;;;;;;;;;1717007;28;20197;-70
2022/01/16 05:01:06;;;;;;;0.10;0.10;;;;;;;;;;1718465;28;20251;-70
2022/01/16 05:01:58;;;;;;;0.00;0.00;;;;;;;;;;1715584;28;20197;-70
2022/01/16 05:02:49;;;;;;;0.10;0.10;;;;;;;;;;1719005;28;20509;-70
2022/01/16 05:03:41;;;;;;;0.10;0.10;;;;;;;;;;1719171;28;20197;-71
2022/01/16 05:04:32;;;;;;;0.17;0.17;;;;;;;;;;1719279;28;20629;-70
2022/01/16 05:05:25;;;;;;;0.20;0.20;;;;;;;;;;1717005;28;20229;-70
2022/01/16 05:06:16;;;;;;;0.00;0.00;;;;;;;;;;1718534;28;20209;-70
2022/01/16 05:07:08;;;;;;;0.20;0.20;;;;;;;;;;1718545;28;20219;-70
2022/01/16 05:08:00;;;;;;;0.10;0.10;;;;;;;;;;1719324;28;20216;-70
2022/01/16 05:08:52;;;;;;;0.00;0.00;;;;;;;;;;1718769;28;20295;-70
2022/01/16 05:09:43;;;;;;;0.10;0.10;;;;;;;;;;1719387;28;20201;-70
2022/01/16 05:10:35;;;;;;;0.10;0.10;;;;;;;;;;1716835;28;20315;-70
2022/01/16 05:11:27;;;;;;;0.10;0.10;;;;;;;;;;1719393;28;20217;-70
2022/01/16 05:12:27;;;;;;;0.00;0.00;;;;;;;;;;1717831;28;20216;-70
2022/01/16 05:13:30;;;;;;;0.00;0.00;;;;;;;;;;1717446;28;20602;-70
2022/01/16 05:16:43;;;;;;;0.40;0.40;;;;;;;;;;1718270;28;20267;-70
2022/01/16 05:17:34;;;;;;;0.35;0.35;;;;;;;;;;1718473;28;20564;-70
2022/01/16 05:18:26;;;;;;;0.20;0.20;;;;;;;;;;1718473;28;20232;-70
2022/01/16 05:19:19;;;;;;;0.10;0.10;;;;;;;;;;1718203;28;20558;-70
2022/01/16 05:20:12;;;;;;;0.28;0.28;;;;;;;;;;1718323;28;20208;-70
2022/01/16 05:21:03;;;;;;;0.10;0.10;;;;;;;;;;1717460;28;20393;-70
2022/01/16 05:21:55;;;;;;;0.10;0.10;;;;;;;;;;1718648;28;20482;-70
2022/01/16 05:22:46;;;;;;;0.10;0.10;;;;;;;;;;1718537;28;20220;-70
2022/01/16 05:23:40;;;;;;;0.22;0.22;;;;;;;;;;1718576;28;20645;-70
2022/01/16 05:24:33;;;;;;;0.30;0.30;;;;;;;;;;1718583;28;20208;-70
2022/01/16 05:25:26;;;;;;;0.30;0.30;;;;;;;;;;1715956;28;20595;-70
2022/01/16 05:26:24;;;;;;;0.17;0.17;;;;;;;;;;1719147;28;20201;-70
2022/01/16 05:27:16;;;;;;;0.20;0.20;;;;;;;;;;1718410;28;20683;-70
2022/01/16 05:28:07;;;;;;;0.30;0.30;;;;;;;;;;1719099;28;20236;-70
2022/01/16 05:29:01;;;;;;;0.00;0.00;;;;;;;;;;1718160;28;20637;-70
2022/01/16 05:29:52;;;;;;;0.10;0.10;;;;;;;;;;1718578;28;20722;-70
2022/01/16 05:30:44;;;;;;;0.10;0.10;;;;;;;;;;1715975;28;20259;-70
2022/01/16 05:31:36;;;;;;;0.10;0.10;;;;;;;;;;1718097;28;20213;-70
2022/01/16 05:32:28;;;;;;;0.30;0.30;;;;;;;;;;1718463;28;20208;-70
2022/01/16 05:33:19;;;;;;;0.00;0.00;;;;;;;;;;1719165;28;20213;-70
2022/01/16 05:34:11;;;;;;;0.10;0.10;;;;;;;;;;1718215;28;20229;-70
2022/01/16 05:35:03;;;;;;;0.20;0.20;;;;;;;;;;1717825;28;20584;-70
2022/01/16 05:35:55;;;;;;;0.10;0.10;;;;;;;;;;1715845;28;20240;-70
2022/01/16 05:36:46;;;;;;;0.10;0.10;;;;;;;;;;1718369;28;20228;-71
2022/01/16 05:37:39;;;;;;;0.00;0.00;;;;;;;;;;1717821;28;20232;-71
2022/01/16 05:38:30;;;;;;;0.10;0.10;;;;;;;;;;1718703;28;20209;-71
2022/01/16 05:39:22;;;;;;;0.20;0.20;;;;;;;;;;1718420;28;20557;-70
2022/01/16 05:40:13;;;;;;;0.00;0.00;;;;;;;;;;1716806;28;20628;-70
2022/01/16 05:41:05;;;;;;;0.10;0.10;;;;;;;;;;1717950;28;20682;-70
2022/01/16 05:42:00;;;;;;;0.00;0.00;;;;;;;;;;1713854;28;20205;-70
2022/01/16 05:42:52;;;;;;;0.00;0.00;;;;;;;;;;1718948;28;20207;-70
2022/01/16 05:43:43;;;;;;;0.00;0.00;;;;;;;;;;1717379;28;20216;-70
2022/01/16 05:44:36;;;;;;;0.10;0.10;;;;;;;;;;1718712;28;20204;-70
2022/01/16 05:45:28;;;;;;;0.20;0.20;;;;;;;;;;1716057;28;20247;-70
2022/01/16 05:46:20;;;;;;;0.10;0.10;;;;;;;;;;1718764;28;20204;-70
2022/01/16 05:47:12;;;;;;;0.20;0.20;;;;;;;;;;1718259;28;20215;-70
2022/01/16 05:48:05;;;;;;;0.43;0.43;;;;;;;;;;1718810;28;20235;-70
2022/01/16 05:48:56;;;;;;;0.20;0.20;;;;;;;;;;1718409;28;20709;-70
2022/01/16 05:49:48;;;;;;;0.10;0.10;;;;;;;;;;1718114;28;20610;-70
2022/01/16 05:50:40;;;;;;;0.10;0.10;;;;;;;;;;1714146;28;20244;-70
2022/01/16 05:51:32;;;;;;;0.30;0.30;;;;;;;;;;1718670;28;20213;-70
2022/01/16 05:52:23;;;;;;;0.30;0.30;;;;;;;;;;1717881;28;20575;-70
2022/01/16 05:53:15;;;;;;;0.22;0.22;;;;;;;;;;1717334;28;20702;-70